sensor_id;sensor_type;location;lat;lon;timestamp;P1;durP1;ratioP1;P2;durP2;ratioP2
4726;SDS011;2377;51.734;8.950;2023-02-28T00:00:37;4.20;;;1.70;;
4726;SDS011;2377;51.734;8.950;2023-02-28T00:03:04;2.90;;;1.53;;
4726;SDS011;2377;51.734;8.950;2023-02-28T00:05:33;7.87;;;1.67;;
4726;SDS011;2377;51.734;8.950;2023-02-28T00:08:00;2.80;;;1.40;;
4726;SDS011;2377;51.734;8.950;2023-02-28T00:10:29;3.27;;;1.57;;
4726;SDS011;2377;51.734;8.950;2023-02-28T00:12:59;3.70;;;1.70;;
4726;SDS011;2377;51.734;8.950;2023-02-28T00:15:29;3.03;;;1.50;;
4726;SDS011;2377;51.734;8.950;2023-02-28T00:17:58;3.23;;;2.07;;
4726;SDS011;2377;51.734;8.950;2023-02-28T00:20:25;2.97;;;1.60;;
4726;SDS011;2377;51.734;8.950;2023-02-28T00:22:52;3.77;;;1.70;;
4726;SDS011;2377;51.734;8.950;2023-02-28T00:25:21;3.60;;;2.00;;
4726;SDS011;2377;51.734;8.950;2023-02-28T00:27:53;3.37;;;1.87;;
4726;SDS011;2377;51.734;8.950;2023-02-28T00:30:21;2.80;;;1.60;;
4726;SDS011;2377;51.734;8.950;2023-02-28T00:32:49;3.40;;;1.70;;
4726;SDS011;2377;51.734;8.950;2023-02-28T00:35:17;3.07;;;1.70;;
4726;SDS011;2377;51.734;8.950;2023-02-28T00:37:44;3.90;;;2.00;;
4726;SDS011;2377;51.734;8.950;2023-02-28T00:40:13;4.10;;;1.90;;
4726;SDS011;2377;51.734;8.950;2023-02-28T00:42:40;3.17;;;1.83;;
4726;SDS011;2377;51.734;8.950;2023-02-28T00:45:09;2.43;;;1.60;;
4726;SDS011;2377;51.734;8.950;2023-02-28T00:47:36;3.17;;;1.60;;
4726;SDS011;2377;51.734;8.950;2023-02-28T00:50:04;2.60;;;1.73;;
4726;SDS011;2377;51.734;8.950;2023-02-28T00:52:33;3.00;;;1.50;;
4726;SDS011;2377;51.734;8.950;2023-02-28T00:55:00;2.90;;;1.70;;
4726;SDS011;2377;51.734;8.950;2023-02-28T00:57:27;2.77;;;1.50;;
4726;SDS011;2377;51.734;8.950;2023-02-28T00:59:54;2.50;;;1.60;;
4726;SDS011;2377;51.734;8.950;2023-02-28T01:02:23;3.00;;;1.53;;
4726;SDS011;2377;51.734;8.950;2023-02-28T01:04:50;2.73;;;1.70;;
4726;SDS011;2377;51.734;8.950;2023-02-28T01:07:17;3.87;;;1.70;;
4726;SDS011;2377;51.734;8.950;2023-02-28T01:09:44;2.80;;;1.40;;
4726;SDS011;2377;51.734;8.950;2023-02-28T01:12:11;2.40;;;1.53;;
4726;SDS011;2377;51.734;8.950;2023-02-28T01:14:38;3.40;;;1.57;;
4726;SDS011;2377;51.734;8.950;2023-02-28T01:17:06;2.00;;;1.30;;
4726;SDS011;2377;51.734;8.950;2023-02-28T01:19:35;2.23;;;1.40;;
4726;SDS011;2377;51.734;8.950;2023-02-28T01:22:02;3.60;;;1.60;;
4726;SDS011;2377;51.734;8.950;2023-02-28T01:24:30;2.43;;;1.50;;
4726;SDS011;2377;51.734;8.950;2023-02-28T01:26:58;2.73;;;1.47;;
4726;SDS011;2377;51.734;8.950;2023-02-28T01:29:26;2.67;;;1.67;;
4726;SDS011;2377;51.734;8.950;2023-02-28T01:31:53;2.13;;;1.30;;
4726;SDS011;2377;51.734;8.950;2023-02-28T01:34:20;3.00;;;1.40;;
4726;SDS011;2377;51.734;8.950;2023-02-28T01:36:48;2.77;;;1.27;;
4726;SDS011;2377;51.734;8.950;2023-02-28T01:39:15;3.27;;;1.30;;
4726;SDS011;2377;51.734;8.950;2023-02-28T01:41:43;2.20;;;1.40;;
4726;SDS011;2377;51.734;8.950;2023-02-28T01:47:23;2.83;;;1.30;;
4726;SDS011;2377;51.734;8.950;2023-02-28T01:49:55;2.53;;;1.50;;
4726;SDS011;2377;51.734;8.950;2023-02-28T01:52:25;3.50;;;1.50;;
4726;SDS011;2377;51.734;8.950;2023-02-28T01:54:54;2.50;;;1.57;;
4726;SDS011;2377;51.734;8.950;2023-02-28T01:57:27;2.43;;;1.33;;
4726;SDS011;2377;51.734;8.950;2023-02-28T02:00:04;2.47;;;1.50;;
4726;SDS011;2377;51.734;8.950;2023-02-28T02:02:36;2.00;;;1.30;;
4726;SDS011;2377;51.734;8.950;2023-02-28T02:05:04;2.80;;;1.50;;
4726;SDS011;2377;51.734;8.950;2023-02-28T02:07:36;2.90;;;1.40;;
4726;SDS011;2377;51.734;8.950;2023-02-28T02:10:11;2.57;;;1.63;;
4726;SDS011;2377;51.734;8.950;2023-02-28T02:12:52;5.50;;;1.50;;
4726;SDS011;2377;51.734;8.950;2023-02-28T02:15:39;3.13;;;1.70;;
4726;SDS011;2377;51.734;8.950;2023-02-28T02:18:17;3.40;;;1.73;;
4726;SDS011;2377;51.734;8.950;2023-02-28T02:24:18;6.10;;;1.53;;
4726;SDS011;2377;51.734;8.950;2023-02-28T02:27:25;2.10;;;1.33;;
4726;SDS011;2377;51.734;8.950;2023-02-28T02:30:18;3.53;;;1.70;;
4726;SDS011;2377;51.734;8.950;2023-02-28T02:33:22;3.03;;;1.83;;
4726;SDS011;2377;51.734;8.950;2023-02-28T02:36:20;3.30;;;1.80;;
4726;SDS011;2377;51.734;8.950;2023-02-28T02:38:52;3.60;;;1.57;;
4726;SDS011;2377;51.734;8.950;2023-02-28T02:41:32;2.40;;;1.30;;
4726;SDS011;2377;51.734;8.950;2023-02-28T02:44:06;2.90;;;1.60;;
4726;SDS011;2377;51.734;8.950;2023-02-28T02:46:43;2.27;;;1.30;;
4726;SDS011;2377;51.734;8.950;2023-02-28T02:49:14;2.20;;;1.50;;
4726;SDS011;2377;51.734;8.950;2023-02-28T02:51:49;4.40;;;1.50;;
4726;SDS011;2377;51.734;8.950;2023-02-28T02:54:19;3.30;;;1.60;;
4726;SDS011;2377;51.734;8.950;2023-02-28T02:56:54;4.20;;;1.80;;
4726;SDS011;2377;51.734;8.950;2023-02-28T02:59:25;2.60;;;1.67;;
4726;SDS011;2377;51.734;8.950;2023-02-28T03:01:55;2.87;;;1.70;;
4726;SDS011;2377;51.734;8.950;2023-02-28T03:04:28;2.70;;;1.30;;
4726;SDS011;2377;51.734;8.950;2023-02-28T03:07:02;2.80;;;1.30;;
4726;SDS011;2377;51.734;8.950;2023-02-28T03:09:32;3.03;;;1.47;;
4726;SDS011;2377;51.734;8.950;2023-02-28T03:12:01;2.00;;;1.40;;
4726;SDS011;2377;51.734;8.950;2023-02-28T03:14:35;3.60;;;1.37;;
4726;SDS011;2377;51.734;8.950;2023-02-28T03:17:28;2.80;;;1.53;;
4726;SDS011;2377;51.734;8.950;2023-02-28T03:20:15;3.00;;;1.40;;
4726;SDS011;2377;51.734;8.950;2023-02-28T03:22:58;2.03;;;1.40;;
4726;SDS011;2377;51.734;8.950;2023-02-28T03:25:42;2.30;;;1.40;;
4726;SDS011;2377;51.734;8.950;2023-02-28T03:28:23;1.90;;;1.20;;
4726;SDS011;2377;51.734;8.950;2023-02-28T03:31:03;2.67;;;1.53;;
4726;SDS011;2377;51.734;8.950;2023-02-28T03:33:42;2.50;;;1.53;;
4726;SDS011;2377;51.734;8.950;2023-02-28T03:36:20;3.20;;;1.40;;
4726;SDS011;2377;51.734;8.950;2023-02-28T03:38:56;2.57;;;1.47;;
4726;SDS011;2377;51.734;8.950;2023-02-28T03:41:31;2.37;;;1.30;;
4726;SDS011;2377;51.734;8.950;2023-02-28T03:44:07;4.37;;;1.90;;
4726;SDS011;2377;51.734;8.950;2023-02-28T03:46:42;2.30;;;1.20;;
4726;SDS011;2377;51.734;8.950;2023-02-28T03:49:20;2.73;;;1.60;;
4726;SDS011;2377;51.734;8.950;2023-02-28T03:51:50;3.33;;;1.53;;
4726;SDS011;2377;51.734;8.950;2023-02-28T03:54:23;2.30;;;1.40;;
4726;SDS011;2377;51.734;8.950;2023-02-28T03:56:58;2.50;;;1.30;;
4726;SDS011;2377;51.734;8.950;2023-02-28T03:59:32;2.40;;;1.40;;
4726;SDS011;2377;51.734;8.950;2023-02-28T04:02:05;2.17;;;1.50;;
4726;SDS011;2377;51.734;8.950;2023-02-28T04:04:33;1.97;;;1.23;;
4726;SDS011;2377;51.734;8.950;2023-02-28T04:07:01;1.70;;;1.20;;
4726;SDS011;2377;51.734;8.950;2023-02-28T04:09:32;1.97;;;1.30;;
4726;SDS011;2377;51.734;8.950;2023-02-28T04:11:59;1.93;;;1.27;;
4726;SDS011;2377;51.734;8.950;2023-02-28T04:14:26;2.40;;;1.30;;
4726;SDS011;2377;51.734;8.950;2023-02-28T04:16:53;2.40;;;1.30;;
4726;SDS011;2377;51.734;8.950;2023-02-28T04:19:20;2.13;;;1.30;;
4726;SDS011;2377;51.734;8.950;2023-02-28T04:21:48;3.40;;;1.30;;
4726;SDS011;2377;51.734;8.950;2023-02-28T04:24:17;2.50;;;1.53;;
4726;SDS011;2377;51.734;8.950;2023-02-28T04:26:50;2.07;;;1.43;;
4726;SDS011;2377;51.734;8.950;2023-02-28T04:29:20;2.90;;;1.40;;
4726;SDS011;2377;51.734;8.950;2023-02-28T04:31:50;3.00;;;1.60;;
4726;SDS011;2377;51.734;8.950;2023-02-28T04:34:18;2.80;;;1.47;;
4726;SDS011;2377;51.734;8.950;2023-02-28T04:36:46;2.40;;;1.30;;
4726;SDS011;2377;51.734;8.950;2023-02-28T04:39:14;3.70;;;1.30;;
4726;SDS011;2377;51.734;8.950;2023-02-28T04:41:43;2.67;;;1.50;;
4726;SDS011;2377;51.734;8.950;2023-02-28T04:44:11;3.00;;;1.63;;
4726;SDS011;2377;51.734;8.950;2023-02-28T04:46:39;3.00;;;1.47;;
4726;SDS011;2377;51.734;8.950;2023-02-28T04:49:06;2.03;;;1.33;;
4726;SDS011;2377;51.734;8.950;2023-02-28T04:51:36;2.63;;;1.40;;
4726;SDS011;2377;51.734;8.950;2023-02-28T04:54:04;2.87;;;1.50;;
4726;SDS011;2377;51.734;8.950;2023-02-28T04:56:31;4.40;;;1.77;;
4726;SDS011;2377;51.734;8.950;2023-02-28T04:58:58;3.30;;;1.70;;
4726;SDS011;2377;51.734;8.950;2023-02-28T05:01:27;1.90;;;1.37;;
4726;SDS011;2377;51.734;8.950;2023-02-28T05:03:57;5.37;;;1.83;;
4726;SDS011;2377;51.734;8.950;2023-02-28T05:06:28;3.20;;;1.90;;
4726;SDS011;2377;51.734;8.950;2023-02-28T05:08:57;4.27;;;1.53;;
4726;SDS011;2377;51.734;8.950;2023-02-28T05:11:25;4.17;;;1.70;;
4726;SDS011;2377;51.734;8.950;2023-02-28T05:13:59;3.83;;;1.80;;
4726;SDS011;2377;51.734;8.950;2023-02-28T05:16:28;3.80;;;1.67;;
4726;SDS011;2377;51.734;8.950;2023-02-28T05:18:56;2.30;;;1.50;;
4726;SDS011;2377;51.734;8.950;2023-02-28T05:21:27;5.07;;;1.77;;
4726;SDS011;2377;51.734;8.950;2023-02-28T05:23:58;2.60;;;1.90;;
4726;SDS011;2377;51.734;8.950;2023-02-28T05:26:27;5.87;;;2.30;;
4726;SDS011;2377;51.734;8.950;2023-02-28T05:28:55;6.33;;;2.27;;
4726;SDS011;2377;51.734;8.950;2023-02-28T05:31:22;4.60;;;2.37;;
4726;SDS011;2377;51.734;8.950;2023-02-28T05:33:51;5.07;;;2.20;;
4726;SDS011;2377;51.734;8.950;2023-02-28T05:36:18;4.43;;;2.30;;
4726;SDS011;2377;51.734;8.950;2023-02-28T05:38:47;3.60;;;1.90;;
4726;SDS011;2377;51.734;8.950;2023-02-28T05:41:16;2.90;;;1.90;;
4726;SDS011;2377;51.734;8.950;2023-02-28T05:43:45;7.10;;;1.60;;
4726;SDS011;2377;51.734;8.950;2023-02-28T05:46:12;4.07;;;1.90;;
4726;SDS011;2377;51.734;8.950;2023-02-28T05:48:42;3.50;;;2.10;;
4726;SDS011;2377;51.734;8.950;2023-02-28T05:51:14;6.53;;;1.60;;
4726;SDS011;2377;51.734;8.950;2023-02-28T05:53:42;4.20;;;2.00;;
4726;SDS011;2377;51.734;8.950;2023-02-28T05:56:09;3.00;;;1.80;;
4726;SDS011;2377;51.734;8.950;2023-02-28T05:58:36;3.17;;;1.93;;
4726;SDS011;2377;51.734;8.950;2023-02-28T06:01:19;3.33;;;1.93;;
4726;SDS011;2377;51.734;8.950;2023-02-28T06:03:52;5.17;;;2.20;;
4726;SDS011;2377;51.734;8.950;2023-02-28T06:06:20;3.97;;;1.93;;
4726;SDS011;2377;51.734;8.950;2023-02-28T06:08:47;4.80;;;2.20;;
4726;SDS011;2377;51.734;8.950;2023-02-28T06:11:14;3.40;;;2.10;;
4726;SDS011;2377;51.734;8.950;2023-02-28T06:13:42;5.20;;;2.30;;
4726;SDS011;2377;51.734;8.950;2023-02-28T06:16:10;3.47;;;2.00;;
4726;SDS011;2377;51.734;8.950;2023-02-28T06:18:37;4.60;;;2.07;;
4726;SDS011;2377;51.734;8.950;2023-02-28T06:21:04;3.60;;;1.97;;
4726;SDS011;2377;51.734;8.950;2023-02-28T06:23:33;4.30;;;2.00;;
4726;SDS011;2377;51.734;8.950;2023-02-28T06:26:00;2.83;;;1.83;;
4726;SDS011;2377;51.734;8.950;2023-02-28T06:28:27;12.03;;;3.13;;
4726;SDS011;2377;51.734;8.950;2023-02-28T06:30:54;4.50;;;2.43;;
4726;SDS011;2377;51.734;8.950;2023-02-28T06:33:21;4.83;;;2.30;;
4726;SDS011;2377;51.734;8.950;2023-02-28T06:35:50;4.17;;;2.10;;
4726;SDS011;2377;51.734;8.950;2023-02-28T06:38:18;2.87;;;1.80;;
4726;SDS011;2377;51.734;8.950;2023-02-28T06:40:52;6.60;;;2.07;;
4726;SDS011;2377;51.734;8.950;2023-02-28T06:43:20;4.27;;;2.70;;
4726;SDS011;2377;51.734;8.950;2023-02-28T06:45:47;3.33;;;1.53;;
4726;SDS011;2377;51.734;8.950;2023-02-28T06:48:15;4.70;;;2.27;;
4726;SDS011;2377;51.734;8.950;2023-02-28T06:50:42;5.83;;;2.17;;
4726;SDS011;2377;51.734;8.950;2023-02-28T06:53:09;3.70;;;1.97;;
4726;SDS011;2377;51.734;8.950;2023-02-28T06:55:37;4.43;;;2.73;;
4726;SDS011;2377;51.734;8.950;2023-02-28T06:58:06;7.20;;;3.40;;
4726;SDS011;2377;51.734;8.950;2023-02-28T07:00:39;5.90;;;3.00;;
4726;SDS011;2377;51.734;8.950;2023-02-28T07:03:07;8.63;;;3.30;;
4726;SDS011;2377;51.734;8.950;2023-02-28T07:05:34;17.97;;;3.47;;
4726;SDS011;2377;51.734;8.950;2023-02-28T07:08:02;6.63;;;2.67;;
4726;SDS011;2377;51.734;8.950;2023-02-28T07:10:31;3.30;;;2.00;;
4726;SDS011;2377;51.734;8.950;2023-02-28T07:12:58;6.00;;;2.47;;
4726;SDS011;2377;51.734;8.950;2023-02-28T07:15:27;3.00;;;1.70;;
4726;SDS011;2377;51.734;8.950;2023-02-28T07:17:54;3.10;;;1.70;;
4726;SDS011;2377;51.734;8.950;2023-02-28T07:20:22;3.67;;;1.90;;
4726;SDS011;2377;51.734;8.950;2023-02-28T07:22:49;3.23;;;1.77;;
4726;SDS011;2377;51.734;8.950;2023-02-28T07:25:21;3.60;;;1.80;;
4726;SDS011;2377;51.734;8.950;2023-02-28T07:27:49;2.80;;;1.60;;
4726;SDS011;2377;51.734;8.950;2023-02-28T07:30:16;3.10;;;2.10;;
4726;SDS011;2377;51.734;8.950;2023-02-28T07:32:45;3.13;;;1.97;;
4726;SDS011;2377;51.734;8.950;2023-02-28T07:35:12;2.97;;;1.60;;
4726;SDS011;2377;51.734;8.950;2023-02-28T07:37:40;6.87;;;2.60;;
4726;SDS011;2377;51.734;8.950;2023-02-28T07:40:08;3.50;;;2.00;;
4726;SDS011;2377;51.734;8.950;2023-02-28T07:42:38;3.17;;;1.83;;
4726;SDS011;2377;51.734;8.950;2023-02-28T07:45:06;3.90;;;1.97;;
4726;SDS011;2377;51.734;8.950;2023-02-28T07:47:36;6.23;;;2.33;;
4726;SDS011;2377;51.734;8.950;2023-02-28T07:50:06;4.20;;;2.27;;
4726;SDS011;2377;51.734;8.950;2023-02-28T07:52:36;7.23;;;3.13;;
4726;SDS011;2377;51.734;8.950;2023-02-28T07:55:04;8.87;;;2.87;;
4726;SDS011;2377;51.734;8.950;2023-02-28T07:57:35;5.70;;;2.60;;
4726;SDS011;2377;51.734;8.950;2023-02-28T08:00:02;4.50;;;2.57;;
4726;SDS011;2377;51.734;8.950;2023-02-28T08:02:30;5.33;;;3.47;;
4726;SDS011;2377;51.734;8.950;2023-02-28T08:04:58;4.53;;;3.60;;
4726;SDS011;2377;51.734;8.950;2023-02-28T08:07:27;5.77;;;3.10;;
4726;SDS011;2377;51.734;8.950;2023-02-28T08:09:55;5.50;;;3.03;;
4726;SDS011;2377;51.734;8.950;2023-02-28T08:12:22;4.97;;;2.87;;
4726;SDS011;2377;51.734;8.950;2023-02-28T08:14:49;4.10;;;2.40;;
4726;SDS011;2377;51.734;8.950;2023-02-28T08:17:16;6.40;;;2.37;;
4726;SDS011;2377;51.734;8.950;2023-02-28T08:19:44;4.10;;;2.37;;
4726;SDS011;2377;51.734;8.950;2023-02-28T08:22:12;5.17;;;3.03;;
4726;SDS011;2377;51.734;8.950;2023-02-28T08:24:42;12.07;;;3.33;;
4726;SDS011;2377;51.734;8.950;2023-02-28T08:27:09;4.73;;;2.70;;
4726;SDS011;2377;51.734;8.950;2023-02-28T08:29:36;5.23;;;2.93;;
4726;SDS011;2377;51.734;8.950;2023-02-28T08:32:04;5.23;;;2.73;;
4726;SDS011;2377;51.734;8.950;2023-02-28T08:34:31;4.80;;;2.53;;
4726;SDS011;2377;51.734;8.950;2023-02-28T08:37:01;5.50;;;2.70;;
4726;SDS011;2377;51.734;8.950;2023-02-28T08:39:28;5.13;;;2.33;;
4726;SDS011;2377;51.734;8.950;2023-02-28T08:41:57;4.57;;;2.90;;
4726;SDS011;2377;51.734;8.950;2023-02-28T08:44:24;4.40;;;3.00;;
4726;SDS011;2377;51.734;8.950;2023-02-28T08:46:52;5.50;;;3.17;;
4726;SDS011;2377;51.734;8.950;2023-02-28T08:49:19;7.27;;;2.90;;
4726;SDS011;2377;51.734;8.950;2023-02-28T08:51:46;5.43;;;2.90;;
4726;SDS011;2377;51.734;8.950;2023-02-28T08:54:13;5.13;;;2.80;;
4726;SDS011;2377;51.734;8.950;2023-02-28T08:56:44;5.17;;;3.17;;
4726;SDS011;2377;51.734;8.950;2023-02-28T08:59:13;4.00;;;2.87;;
4726;SDS011;2377;51.734;8.950;2023-02-28T09:01:40;4.37;;;2.57;;
4726;SDS011;2377;51.734;8.950;2023-02-28T09:04:08;4.70;;;2.70;;
4726;SDS011;2377;51.734;8.950;2023-02-28T09:06:39;5.57;;;2.90;;
4726;SDS011;2377;51.734;8.950;2023-02-28T09:09:07;5.07;;;2.50;;
4726;SDS011;2377;51.734;8.950;2023-02-28T09:11:34;4.27;;;2.73;;
4726;SDS011;2377;51.734;8.950;2023-02-28T09:14:02;5.03;;;2.73;;
4726;SDS011;2377;51.734;8.950;2023-02-28T09:16:31;9.00;;;3.70;;
4726;SDS011;2377;51.734;8.950;2023-02-28T09:19:00;4.43;;;2.77;;
4726;SDS011;2377;51.734;8.950;2023-02-28T09:21:27;4.77;;;3.00;;
4726;SDS011;2377;51.734;8.950;2023-02-28T09:23:55;4.50;;;2.80;;
4726;SDS011;2377;51.734;8.950;2023-02-28T09:26:23;4.87;;;3.00;;
4726;SDS011;2377;51.734;8.950;2023-02-28T09:28:53;7.70;;;2.90;;
4726;SDS011;2377;51.734;8.950;2023-02-28T09:31:21;6.90;;;3.23;;
4726;SDS011;2377;51.734;8.950;2023-02-28T09:33:55;4.43;;;2.97;;
4726;SDS011;2377;51.734;8.950;2023-02-28T09:36:24;5.03;;;2.77;;
4726;SDS011;2377;51.734;8.950;2023-02-28T09:38:53;6.37;;;2.50;;
4726;SDS011;2377;51.734;8.950;2023-02-28T09:41:21;9.10;;;3.17;;
4726;SDS011;2377;51.734;8.950;2023-02-28T09:43:53;13.50;;;3.40;;
4726;SDS011;2377;51.734;8.950;2023-02-28T09:46:28;8.20;;;3.97;;
4726;SDS011;2377;51.734;8.950;2023-02-28T09:49:02;6.07;;;3.30;;
4726;SDS011;2377;51.734;8.950;2023-02-28T09:51:40;5.27;;;3.30;;
4726;SDS011;2377;51.734;8.950;2023-02-28T09:54:17;8.80;;;3.57;;
4726;SDS011;2377;51.734;8.950;2023-02-28T09:56:48;7.13;;;4.00;;
4726;SDS011;2377;51.734;8.950;2023-02-28T09:59:26;5.83;;;3.20;;
4726;SDS011;2377;51.734;8.950;2023-02-28T10:02:10;5.20;;;3.23;;
4726;SDS011;2377;51.734;8.950;2023-02-28T10:04:58;7.13;;;4.03;;
4726;SDS011;2377;51.734;8.950;2023-02-28T10:07:36;11.77;;;4.13;;
4726;SDS011;2377;51.734;8.950;2023-02-28T10:10:21;6.37;;;3.60;;
4726;SDS011;2377;51.734;8.950;2023-02-28T10:12:54;7.10;;;3.10;;
4726;SDS011;2377;51.734;8.950;2023-02-28T10:15:25;5.53;;;2.93;;
4726;SDS011;2377;51.734;8.950;2023-02-28T10:17:57;5.10;;;3.43;;
4726;SDS011;2377;51.734;8.950;2023-02-28T10:20:32;5.13;;;3.00;;
4726;SDS011;2377;51.734;8.950;2023-02-28T10:23:04;8.20;;;4.10;;
4726;SDS011;2377;51.734;8.950;2023-02-28T10:25:39;6.00;;;3.57;;
4726;SDS011;2377;51.734;8.950;2023-02-28T10:28:13;8.00;;;3.57;;
4726;SDS011;2377;51.734;8.950;2023-02-28T10:30:43;7.20;;;3.63;;
4726;SDS011;2377;51.734;8.950;2023-02-28T10:33:18;6.00;;;3.53;;
4726;SDS011;2377;51.734;8.950;2023-02-28T10:35:51;6.67;;;3.50;;
4726;SDS011;2377;51.734;8.950;2023-02-28T10:38:20;8.77;;;4.37;;
4726;SDS011;2377;51.734;8.950;2023-02-28T10:40:50;6.73;;;3.50;;
4726;SDS011;2377;51.734;8.950;2023-02-28T10:43:28;5.80;;;3.90;;
4726;SDS011;2377;51.734;8.950;2023-02-28T10:45:59;6.97;;;4.00;;
4726;SDS011;2377;51.734;8.950;2023-02-28T10:48:36;7.93;;;3.90;;
4726;SDS011;2377;51.734;8.950;2023-02-28T10:51:09;5.90;;;3.33;;
4726;SDS011;2377;51.734;8.950;2023-02-28T10:53:44;6.50;;;3.43;;
4726;SDS011;2377;51.734;8.950;2023-02-28T10:56:16;5.50;;;3.80;;
4726;SDS011;2377;51.734;8.950;2023-02-28T10:58:48;8.90;;;3.63;;
4726;SDS011;2377;51.734;8.950;2023-02-28T11:01:20;6.70;;;3.70;;
4726;SDS011;2377;51.734;8.950;2023-02-28T11:03:50;7.10;;;3.10;;
4726;SDS011;2377;51.734;8.950;2023-02-28T11:06:20;5.20;;;3.23;;
4726;SDS011;2377;51.734;8.950;2023-02-28T11:08:50;4.63;;;3.33;;
4726;SDS011;2377;51.734;8.950;2023-02-28T11:11:21;5.47;;;3.13;;
4726;SDS011;2377;51.734;8.950;2023-02-28T11:13:52;4.30;;;2.87;;
4726;SDS011;2377;51.734;8.950;2023-02-28T11:16:30;6.80;;;3.20;;
4726;SDS011;2377;51.734;8.950;2023-02-28T11:19:00;4.50;;;2.83;;
4726;SDS011;2377;51.734;8.950;2023-02-28T11:21:32;5.47;;;3.00;;
4726;SDS011;2377;51.734;8.950;2023-02-28T11:24:12;4.80;;;2.90;;
4726;SDS011;2377;51.734;8.950;2023-02-28T11:26:50;6.07;;;3.13;;
4726;SDS011;2377;51.734;8.950;2023-02-28T11:29:19;7.53;;;4.43;;
4726;SDS011;2377;51.734;8.950;2023-02-28T11:34:46;5.57;;;3.73;;
4726;SDS011;2377;51.734;8.950;2023-02-28T11:37:29;6.60;;;3.90;;
4726;SDS011;2377;51.734;8.950;2023-02-28T11:39:59;6.43;;;3.73;;
4726;SDS011;2377;51.734;8.950;2023-02-28T11:42:31;11.30;;;3.90;;
4726;SDS011;2377;51.734;8.950;2023-02-28T11:45:22;5.80;;;3.30;;
4726;SDS011;2377;51.734;8.950;2023-02-28T11:48:10;6.63;;;3.67;;
4726;SDS011;2377;51.734;8.950;2023-02-28T11:51:00;4.47;;;3.27;;
4726;SDS011;2377;51.734;8.950;2023-02-28T11:53:55;4.40;;;3.20;;
4726;SDS011;2377;51.734;8.950;2023-02-28T11:56:39;5.97;;;3.50;;
4726;SDS011;2377;51.734;8.950;2023-02-28T11:59:29;5.87;;;3.70;;
4726;SDS011;2377;51.734;8.950;2023-02-28T12:02:18;5.10;;;3.70;;
4726;SDS011;2377;51.734;8.950;2023-02-28T12:04:56;5.57;;;3.93;;
4726;SDS011;2377;51.734;8.950;2023-02-28T12:07:48;5.33;;;3.37;;
4726;SDS011;2377;51.734;8.950;2023-02-28T12:10:29;6.23;;;3.40;;
4726;SDS011;2377;51.734;8.950;2023-02-28T12:13:19;6.43;;;3.53;;
4726;SDS011;2377;51.734;8.950;2023-02-28T12:19:03;5.20;;;3.40;;
4726;SDS011;2377;51.734;8.950;2023-02-28T12:21:48;5.93;;;3.33;;
4726;SDS011;2377;51.734;8.950;2023-02-28T12:28:13;7.63;;;3.40;;
4726;SDS011;2377;51.734;8.950;2023-02-28T12:30:49;7.80;;;3.53;;
4726;SDS011;2377;51.734;8.950;2023-02-28T12:33:24;6.10;;;3.80;;
4726;SDS011;2377;51.734;8.950;2023-02-28T12:36:00;4.93;;;3.10;;
4726;SDS011;2377;51.734;8.950;2023-02-28T12:38:37;5.97;;;3.10;;
4726;SDS011;2377;51.734;8.950;2023-02-28T12:41:12;8.03;;;3.30;;
4726;SDS011;2377;51.734;8.950;2023-02-28T12:43:46;9.90;;;3.30;;
4726;SDS011;2377;51.734;8.950;2023-02-28T12:46:23;5.80;;;3.37;;
4726;SDS011;2377;51.734;8.950;2023-02-28T12:48:59;6.00;;;4.07;;
4726;SDS011;2377;51.734;8.950;2023-02-28T12:51:32;9.80;;;4.20;;
4726;SDS011;2377;51.734;8.950;2023-02-28T12:54:04;4.37;;;3.10;;
4726;SDS011;2377;51.734;8.950;2023-02-28T12:56:48;6.97;;;3.53;;
4726;SDS011;2377;51.734;8.950;2023-02-28T12:59:25;5.33;;;3.37;;
4726;SDS011;2377;51.734;8.950;2023-02-28T13:02:17;7.20;;;3.53;;
4726;SDS011;2377;51.734;8.950;2023-02-28T13:08:43;6.00;;;3.47;;
4726;SDS011;2377;51.734;8.950;2023-02-28T13:11:31;4.50;;;3.10;;
4726;SDS011;2377;51.734;8.950;2023-02-28T13:14:06;5.27;;;3.20;;
4726;SDS011;2377;51.734;8.950;2023-02-28T13:16:56;4.70;;;3.20;;
4726;SDS011;2377;51.734;8.950;2023-02-28T13:19:29;7.87;;;3.87;;
4726;SDS011;2377;51.734;8.950;2023-02-28T13:21:59;5.97;;;3.77;;
4726;SDS011;2377;51.734;8.950;2023-02-28T13:33:32;6.23;;;3.33;;
4726;SDS011;2377;51.734;8.950;2023-02-28T13:36:08;7.40;;;3.77;;
4726;SDS011;2377;51.734;8.950;2023-02-28T13:38:49;6.20;;;3.43;;
4726;SDS011;2377;51.734;8.950;2023-02-28T13:44:11;4.60;;;3.00;;
4726;SDS011;2377;51.734;8.950;2023-02-28T13:49:50;8.30;;;4.53;;
4726;SDS011;2377;51.734;8.950;2023-02-28T13:52:20;4.70;;;3.80;;
4726;SDS011;2377;51.734;8.950;2023-02-28T13:54:52;6.07;;;3.70;;
4726;SDS011;2377;51.734;8.950;2023-02-28T13:57:50;6.50;;;4.13;;
4726;SDS011;2377;51.734;8.950;2023-02-28T14:00:42;4.80;;;3.43;;
4726;SDS011;2377;51.734;8.950;2023-02-28T14:03:37;6.47;;;3.40;;
4726;SDS011;2377;51.734;8.950;2023-02-28T14:06:25;5.90;;;3.83;;
4726;SDS011;2377;51.734;8.950;2023-02-28T14:08:58;5.53;;;3.53;;
4726;SDS011;2377;51.734;8.950;2023-02-28T14:11:33;5.93;;;3.90;;
4726;SDS011;2377;51.734;8.950;2023-02-28T14:14:02;6.93;;;3.70;;
4726;SDS011;2377;51.734;8.950;2023-02-28T14:16:36;4.50;;;3.00;;
4726;SDS011;2377;51.734;8.950;2023-02-28T14:19:12;7.17;;;3.07;;
4726;SDS011;2377;51.734;8.950;2023-02-28T14:21:58;7.53;;;3.33;;
4726;SDS011;2377;51.734;8.950;2023-02-28T14:24:44;4.93;;;3.43;;
4726;SDS011;2377;51.734;8.950;2023-02-28T14:27:36;5.90;;;3.93;;
4726;SDS011;2377;51.734;8.950;2023-02-28T14:30:15;8.03;;;3.70;;
4726;SDS011;2377;51.734;8.950;2023-02-28T14:33:22;6.83;;;3.80;;
4726;SDS011;2377;51.734;8.950;2023-02-28T14:36:09;6.33;;;3.63;;
4726;SDS011;2377;51.734;8.950;2023-02-28T14:38:45;5.67;;;3.37;;
4726;SDS011;2377;51.734;8.950;2023-02-28T14:41:22;5.20;;;3.70;;
4726;SDS011;2377;51.734;8.950;2023-02-28T14:43:55;7.90;;;3.70;;
4726;SDS011;2377;51.734;8.950;2023-02-28T14:46:26;6.20;;;3.53;;
4726;SDS011;2377;51.734;8.950;2023-02-28T14:49:04;6.60;;;4.07;;
4726;SDS011;2377;51.734;8.950;2023-02-28T14:51:34;5.63;;;3.57;;
4726;SDS011;2377;51.734;8.950;2023-02-28T14:54:02;5.97;;;3.53;;
4726;SDS011;2377;51.734;8.950;2023-02-28T14:56:33;5.80;;;3.33;;
4726;SDS011;2377;51.734;8.950;2023-02-28T14:59:04;10.67;;;3.77;;
4726;SDS011;2377;51.734;8.950;2023-02-28T15:01:48;6.50;;;3.30;;
4726;SDS011;2377;51.734;8.950;2023-02-28T15:04:18;5.30;;;3.40;;
4726;SDS011;2377;51.734;8.950;2023-02-28T15:07:09;6.00;;;3.10;;
4726;SDS011;2377;51.734;8.950;2023-02-28T15:09:39;5.40;;;3.30;;
4726;SDS011;2377;51.734;8.950;2023-02-28T15:12:06;5.03;;;3.40;;
4726;SDS011;2377;51.734;8.950;2023-02-28T15:14:39;4.20;;;3.10;;
4726;SDS011;2377;51.734;8.950;2023-02-28T15:17:11;4.10;;;3.17;;
4726;SDS011;2377;51.734;8.950;2023-02-28T15:19:50;6.27;;;3.47;;
4726;SDS011;2377;51.734;8.950;2023-02-28T15:22:23;5.23;;;3.10;;
4726;SDS011;2377;51.734;8.950;2023-02-28T15:25:01;5.93;;;3.73;;
4726;SDS011;2377;51.734;8.950;2023-02-28T15:27:33;5.30;;;3.33;;
4726;SDS011;2377;51.734;8.950;2023-02-28T15:30:08;7.30;;;3.40;;
4726;SDS011;2377;51.734;8.950;2023-02-28T15:32:44;7.63;;;3.43;;
4726;SDS011;2377;51.734;8.950;2023-02-28T15:35:33;5.30;;;3.70;;
4726;SDS011;2377;51.734;8.950;2023-02-28T15:38:03;5.93;;;3.53;;
4726;SDS011;2377;51.734;8.950;2023-02-28T15:40:42;7.30;;;3.57;;
4726;SDS011;2377;51.734;8.950;2023-02-28T15:43:22;6.13;;;3.17;;
4726;SDS011;2377;51.734;8.950;2023-02-28T15:45:53;5.00;;;3.17;;
4726;SDS011;2377;51.734;8.950;2023-02-28T15:48:27;6.27;;;3.00;;
4726;SDS011;2377;51.734;8.950;2023-02-28T15:51:00;7.43;;;3.67;;
4726;SDS011;2377;51.734;8.950;2023-02-28T15:53:36;5.77;;;3.37;;
4726;SDS011;2377;51.734;8.950;2023-02-28T15:56:14;4.93;;;3.17;;
4726;SDS011;2377;51.734;8.950;2023-02-28T15:58:50;4.67;;;3.20;;
4726;SDS011;2377;51.734;8.950;2023-02-28T16:01:23;7.13;;;3.00;;
4726;SDS011;2377;51.734;8.950;2023-02-28T16:03:55;9.10;;;3.53;;
4726;SDS011;2377;51.734;8.950;2023-02-28T16:06:38;5.63;;;3.80;;
4726;SDS011;2377;51.734;8.950;2023-02-28T16:09:10;6.20;;;3.23;;
4726;SDS011;2377;51.734;8.950;2023-02-28T16:11:41;7.13;;;3.43;;
4726;SDS011;2377;51.734;8.950;2023-02-28T16:14:13;5.97;;;3.27;;
4726;SDS011;2377;51.734;8.950;2023-02-28T16:16:45;5.90;;;3.87;;
4726;SDS011;2377;51.734;8.950;2023-02-28T16:19:15;6.73;;;3.70;;
4726;SDS011;2377;51.734;8.950;2023-02-28T16:21:42;7.80;;;4.43;;
4726;SDS011;2377;51.734;8.950;2023-02-28T16:24:10;6.70;;;3.80;;